Time;durP1;ratioP1;P1;durP2;ratioP2;P2;SDS_P1;SDS_P2;PMS_P1;PMS_P2;Temp;Humidity;BMP_temperature;BMP_pressure;BME280_temperature;BME280_humidity;BME280_pressure;Samples;Min_cycle;Max_cycle;Signal;HPM_P1;HPM_P2
2023/12/18 00:01:40;;;;;;;23.60;13.48;;;7.40;99.90;;;;;;4835884;29;20062;-82
2023/12/18 00:04:07;;;;;;;23.67;13.65;;;7.40;99.90;;;;;;4835899;29;20053;-82
2023/12/18 00:06:33;;;;;;;24.83;14.45;;;7.40;99.90;;;;;;4837026;29;20088;-82
2023/12/18 00:08:58;;;;;;;28.27;13.77;;;7.40;99.90;;;;;;4836075;29;20100;-82
2023/12/18 00:11:24;;;;;;;26.08;14.60;;;7.40;99.90;;;;;;4836348;29;20050;-81
2023/12/18 00:13:49;;;;;;;22.90;14.55;;;7.40;99.90;;;;;;4835225;29;20046;-82
2023/12/18 00:16:15;;;;;;;25.55;14.10;;;7.40;99.90;;;;;;4837540;29;20097;-82
2023/12/18 00:18:41;;;;;;;27.55;14.40;;;7.40;99.90;;;;;;4836089;29;20052;-81
2023/12/18 00:21:06;;;;;;;26.58;14.10;;;7.40;99.90;;;;;;4837032;29;20081;-82
2023/12/18 00:23:32;;;;;;;28.10;14.63;;;7.50;99.90;;;;;;4836209;29;20137;-81
2023/12/18 00:25:57;;;;;;;25.45;13.20;;;7.40;99.90;;;;;;4837324;29;20050;-82
2023/12/18 00:28:23;;;;;;;25.98;13.77;;;7.40;99.90;;;;;;4845013;29;20046;-82
2023/12/18 00:30:48;;;;;;;27.23;13.88;;;7.50;99.90;;;;;;4837377;29;20041;-82
2023/12/18 00:33:14;;;;;;;29.42;13.70;;;7.40;99.90;;;;;;4835012;29;20046;-82
2023/12/18 00:35:40;;;;;;;24.20;13.27;;;7.50;99.90;;;;;;4836264;29;20066;-81
2023/12/18 00:38:05;;;;;;;26.30;13.90;;;7.50;99.90;;;;;;4840055;29;20085;-82
2023/12/18 00:40:31;;;;;;;26.65;14.15;;;7.50;99.90;;;;;;4839264;29;20041;-82
2023/12/18 00:42:57;;;;;;;28.73;13.10;;;7.40;99.90;;;;;;4838521;29;20085;-81
2023/12/18 00:45:23;;;;;;;23.90;14.02;;;7.40;99.90;;;;;;4841193;29;20045;-82
2023/12/18 00:47:48;;;;;;;26.70;13.63;;;7.40;99.90;;;;;;4839527;29;20049;-82
2023/12/18 00:50:14;;;;;;;26.00;13.75;;;7.40;99.90;;;;;;4840532;29;20049;-82
2023/12/18 00:52:39;;;;;;;23.27;13.85;;;7.50;99.90;;;;;;4837332;29;20056;-81
2023/12/18 00:55:08;;;;;;;24.52;12.93;;;7.50;99.90;;;;;;4839472;29;20169;-81
2023/12/18 00:57:34;;;;;;;21.65;12.98;;;7.50;99.90;;;;;;4834959;29;20043;-81
2023/12/18 01:00:00;;;;;;;28.77;13.07;;;7.50;99.90;;;;;;4838550;29;20068;-82
2023/12/18 01:02:26;;;;;;;26.80;13.75;;;7.50;99.90;;;;;;4838231;29;20145;-81
2023/12/18 01:04:51;;;;;;;28.98;12.57;;;7.50;99.90;;;;;;4839918;29;20137;-81
2023/12/18 01:07:17;;;;;;;25.27;12.80;;;7.60;99.90;;;;;;4838240;29;20397;-81
2023/12/18 01:09:43;;;;;;;27.52;13.88;;;7.60;99.90;;;;;;4838335;29;20115;-82
2023/12/18 01:12:08;;;;;;;25.40;12.88;;;7.60;99.90;;;;;;4836833;29;20069;-82
2023/12/18 01:14:34;;;;;;;19.25;11.65;;;7.60;99.90;;;;;;4839304;29;20060;-81
2023/12/18 01:17:00;;;;;;;24.50;13.10;;;7.60;99.90;;;;;;4838893;29;20065;-82
2023/12/18 01:19:25;;;;;;;24.02;13.05;;;7.70;99.90;;;;;;4854157;29;20050;-82
2023/12/18 01:21:51;;;;;;;23.58;12.40;;;7.70;99.90;;;;;;4838451;29;20053;-81
2023/12/18 01:24:17;;;;;;;22.85;12.02;;;7.60;99.90;;;;;;4837755;29;20050;-81
2023/12/18 01:26:43;;;;;;;23.40;11.90;;;7.60;99.90;;;;;;4837791;29;20050;-81
2023/12/18 01:29:09;;;;;;;22.92;13.10;;;7.60;99.90;;;;;;4838623;29;20046;-81
2023/12/18 01:31:35;;;;;;;25.20;13.00;;;7.60;99.90;;;;;;4838464;29;20050;-81
2023/12/18 01:34:00;;;;;;;25.58;13.35;;;7.60;99.90;;;;;;4836597;29;20121;-81
2023/12/18 01:36:26;;;;;;;20.48;12.60;;;7.60;99.90;;;;;;4838005;29;20057;-81
2023/12/18 01:38:52;;;;;;;26.85;13.68;;;7.70;99.90;;;;;;4838299;29;20056;-81
2023/12/18 01:41:17;;;;;;;24.02;12.90;;;7.70;99.90;;;;;;4838098;29;20065;-82
2023/12/18 01:43:43;;;;;;;20.88;12.68;;;7.70;99.90;;;;;;4833655;29;20054;-81
2023/12/18 01:46:12;;;;;;;24.25;13.38;;;7.70;99.90;;;;;;4853527;29;20102;-82
2023/12/18 01:48:37;;;;;;;25.02;13.15;;;7.70;99.90;;;;;;4838332;29;20512;-81
2023/12/18 01:51:04;;;;;;;24.88;12.98;;;7.70;99.90;;;;;;4837130;29;20050;-81
2023/12/18 01:53:36;;;;;;;22.85;12.75;;;7.70;99.90;;;;;;4850252;29;20062;-81
2023/12/18 01:56:02;;;;;;;;;;;7.70;99.90;;;;;;4826891;29;20046;-81
2023/12/18 01:58:31;;;;;;;24.95;13.57;;;7.70;99.90;;;;;;4838864;29;20348;-81
2023/12/18 02:00:59;;;;;;;19.42;12.05;;;7.70;99.90;;;;;;4834486;29;20799;-82
2023/12/18 02:03:26;;;;;;;23.98;12.63;;;7.70;99.90;;;;;;4837879;29;20082;-81
2023/12/18 02:05:51;;;;;;;22.27;12.43;;;7.80;99.90;;;;;;4839116;29;20054;-81
2023/12/18 02:08:17;;;;;;;26.23;13.65;;;7.80;99.90;;;;;;4839069;29;20049;-82
2023/12/18 02:10:43;;;;;;;26.50;12.52;;;7.70;99.90;;;;;;4838904;29;20432;-82
2023/12/18 02:13:08;;;;;;;23.30;12.65;;;7.80;99.90;;;;;;4831974;29;20061;-82
2023/12/18 02:15:34;;;;;;;21.15;11.90;;;7.80;99.90;;;;;;4850649;29;20058;-81
2023/12/18 02:18:00;;;;;;;22.70;12.40;;;8.00;99.90;;;;;;4827281;29;20119;-82
2023/12/18 02:20:25;;;;;;;24.48;12.60;;;7.80;99.90;;;;;;4838300;29;20412;-82
2023/12/18 02:22:52;;;;;;;22.13;11.85;;;7.80;99.90;;;;;;4837544;29;20054;-82
2023/12/18 02:25:18;;;;;;;26.80;12.75;;;7.80;99.90;;;;;;4838981;29;20125;-82
2023/12/18 02:27:45;;;;;;;25.65;12.70;;;7.80;99.90;;;;;;4830947;29;20054;-82
2023/12/18 02:30:19;;;;;;;24.55;13.65;;;7.80;99.90;;;;;;4825244;29;20046;-82
2023/12/18 02:32:45;;;;;;;22.27;13.15;;;8.70;99.90;;;;;;4849426;29;20058;-82
2023/12/18 02:35:11;;;;;;;21.08;12.32;;;7.80;99.90;;;;;;4832953;29;20422;-82
2023/12/18 02:37:37;;;;;;;24.25;11.70;;;7.80;99.90;;;;;;4835918;29;20126;-82
2023/12/18 02:40:03;;;;;;;22.02;12.88;;;7.90;99.90;;;;;;4838006;29;20046;-82
2023/12/18 02:42:29;;;;;;;22.17;12.20;;;7.90;99.90;;;;;;4837262;29;20109;-82
2023/12/18 02:44:56;;;;;;;22.58;12.23;;;7.90;99.90;;;;;;4839215;29;20453;-83
2023/12/18 02:47:21;;;;;;;20.33;11.20;;;7.90;99.90;;;;;;4838240;29;20100;-81
2023/12/18 02:49:48;;;;;;;23.23;12.23;;;7.90;99.90;;;;;;4836671;29;20114;-82
2023/12/18 02:52:14;;;;;;;22.52;12.55;;;7.90;99.90;;;;;;4837636;29;20053;-82
2023/12/18 02:54:39;;;;;;;23.20;11.75;;;7.90;99.90;;;;;;4837964;29;20058;-82
2023/12/18 02:57:05;;;;;;;23.80;12.98;;;7.90;99.90;;;;;;4837880;29;20125;-82
2023/12/18 02:59:30;;;;;;;20.60;12.32;;;7.90;99.90;;;;;;4829073;29;20068;-81
2023/12/18 03:01:56;;;;;;;21.95;12.63;;;8.00;99.90;;;;;;4837054;29;20621;-82
2023/12/18 03:04:22;;;;;;;21.15;12.55;;;7.90;99.90;;;;;;4838652;29;20505;-82
2023/12/18 03:06:47;;;;;;;18.70;11.85;;;7.90;99.90;;;;;;4837850;29;20053;-82
2023/12/18 03:09:13;;;;;;;25.27;12.65;;;7.90;99.90;;;;;;4838263;29;20052;-82
2023/12/18 03:11:43;;;;;;;21.48;12.38;;;8.40;99.90;;;;;;4837484;29;20133;-81
2023/12/18 03:14:10;;;;;;;27.80;12.60;;;7.90;99.90;;;;;;4835697;29;20046;-82
2023/12/18 03:16:36;;;;;;;21.15;11.70;;;7.90;99.90;;;;;;4836402;29;20053;-82
2023/12/18 03:19:02;;;;;;;21.75;11.77;;;7.90;99.90;;;;;;4837473;29;20062;-82
2023/12/18 03:21:27;;;;;;;21.40;12.05;;;8.00;99.90;;;;;;4838413;29;20054;-82
2023/12/18 03:23:53;;;;;;;25.15;11.90;;;7.90;99.90;;;;;;4835307;29;20046;-82
2023/12/18 03:26:19;;;;;;;24.95;11.73;;;7.90;99.90;;;;;;4836280;29;20052;-82
2023/12/18 03:28:45;;;;;;;19.38;12.60;;;7.90;99.90;;;;;;4835881;29;20462;-82
2023/12/18 03:31:11;;;;;;;22.17;12.88;;;8.00;99.90;;;;;;4837192;29;20042;-82
2023/12/18 03:33:37;;;;;;;20.30;11.88;;;8.00;99.90;;;;;;4823418;29;20082;-82
2023/12/18 03:36:04;;;;;;;21.23;11.88;;;8.00;99.90;;;;;;4835732;29;20062;-82
2023/12/18 03:38:29;;;;;;;19.52;12.63;;;8.00;99.90;;;;;;4834679;29;20050;-81
2023/12/18 03:40:55;;;;;;;23.23;11.45;;;7.90;99.90;;;;;;4836992;29;20465;-81
2023/12/18 03:43:21;;;;;;;25.08;12.23;;;8.00;99.90;;;;;;4837973;29;20416;-82
2023/12/18 03:45:47;;;;;;;22.30;12.50;;;8.00;99.90;;;;;;4836854;29;20469;-82
2023/12/18 03:48:13;;;;;;;21.23;12.05;;;8.00;99.90;;;;;;4836192;29;20067;-82
2023/12/18 03:50:38;;;;;;;23.83;12.43;;;8.00;99.90;;;;;;4836553;29;20057;-82
2023/12/18 03:53:04;;;;;;;18.95;11.88;;;8.00;99.90;;;;;;4836741;29;20122;-83
2023/12/18 03:55:29;;;;;;;22.65;12.15;;;7.90;99.90;;;;;;4836492;29;20057;-82
2023/12/18 03:57:55;;;;;;;23.35;13.50;;;7.90;99.90;;;;;;4835987;29;20077;-82
2023/12/18 04:00:21;;;;;;;23.77;12.98;;;7.90;99.90;;;;;;4823274;29;20075;-81
2023/12/18 04:02:46;;;;;;;23.85;13.68;;;7.90;99.90;;;;;;4831620;29;20173;-82
2023/12/18 04:05:12;;;;;;;25.05;13.43;;;7.80;99.90;;;;;;4854724;29;20069;-82
2023/12/18 04:07:38;;;;;;;23.58;14.00;;;7.80;99.90;;;;;;4839112;29;20046;-82
2023/12/18 04:10:04;;;;;;;27.73;13.55;;;7.80;99.90;;;;;;4840024;29;20480;-82
2023/12/18 04:12:29;;;;;;;22.52;13.50;;;7.70;99.90;;;;;;4838183;29;20089;-82
2023/12/18 04:14:55;;;;;;;21.15;13.77;;;7.70;99.90;;;;;;4822400;29;20085;-82
2023/12/18 04:17:20;;;;;;;27.85;13.88;;;7.70;99.90;;;;;;4822118;29;20062;-82
2023/12/18 04:19:46;;;;;;;28.00;14.40;;;7.70;99.90;;;;;;4839248;29;20084;-82
2023/12/18 04:22:11;;;;;;;27.23;14.73;;;7.70;99.90;;;;;;4838729;29;20145;-82
2023/12/18 04:24:37;;;;;;;24.65;13.73;;;7.70;99.90;;;;;;4854514;29;20053;-82
2023/12/18 04:27:03;;;;;;;26.05;13.90;;;7.70;99.90;;;;;;4838904;29;20049;-81
2023/12/18 04:29:28;;;;;;;24.77;14.25;;;7.70;99.90;;;;;;4839103;29;20054;-81
2023/12/18 04:31:54;;;;;;;24.58;14.13;;;7.60;99.90;;;;;;4838745;29;20050;-82
2023/12/18 04:34:19;;;;;;;29.75;15.23;;;7.60;99.90;;;;;;4829524;29;20062;-82
2023/12/18 04:36:45;;;;;;;24.35;15.32;;;7.60;99.90;;;;;;4835925;29;20132;-81
2023/12/18 04:39:11;;;;;;;23.95;14.27;;;7.60;99.90;;;;;;4840086;29;20037;-82
2023/12/18 04:41:37;;;;;;;23.52;13.43;;;7.60;99.90;;;;;;4840029;29;20106;-82
2023/12/18 04:44:05;;;;;;;27.52;13.35;;;7.70;99.90;;;;;;4839807;29;20105;-82
2023/12/18 04:46:35;;;;;;;24.23;14.43;;;7.70;99.90;;;;;;4839086;29;20190;-82
2023/12/18 04:49:01;;;;;;;23.02;13.57;;;7.60;99.90;;;;;;4838418;29;20094;-82
2023/12/18 04:51:26;;;;;;;24.08;13.52;;;7.70;99.90;;;;;;4837452;29;20045;-82
2023/12/18 04:53:53;;;;;;;25.67;13.32;;;7.70;99.90;;;;;;4839803;29;20458;-82
2023/12/18 04:56:18;;;;;;;20.17;12.75;;;7.70;99.90;;;;;;4839842;29;20054;-82
2023/12/18 04:58:44;;;;;;;21.48;12.90;;;7.70;99.90;;;;;;4837794;29;20090;-82
2023/12/18 05:01:10;;;;;;;26.45;13.15;;;7.70;99.90;;;;;;4837652;29;20046;-82
2023/12/18 05:03:36;;;;;;;22.50;12.85;;;7.70;99.90;;;;;;4837398;29;20057;-82
2023/12/18 05:06:01;;;;;;;22.70;12.85;;;7.70;99.90;;;;;;4851803;29;20061;-82
2023/12/18 05:08:27;;;;;;;27.20;13.63;;;7.70;99.90;;;;;;4838467;29;20064;-82
2023/12/18 05:10:53;;;;;;;19.48;12.93;;;7.70;99.90;;;;;;4837082;29;20492;-82
2023/12/18 05:13:19;;;;;;;26.25;13.23;;;7.70;99.90;;;;;;4839293;29;20050;-82
2023/12/18 05:15:45;;;;;;;20.65;13.38;;;7.70;99.90;;;;;;4838860;29;20101;-82
2023/12/18 05:18:10;;;;;;;23.80;13.55;;;7.70;99.90;;;;;;4837278;29;20120;-82
2023/12/18 05:20:36;;;;;;;22.67;12.85;;;8.00;99.90;;;;;;4838814;29;20046;-82
2023/12/18 05:23:02;;;;;;;23.33;13.05;;;7.70;99.90;;;;;;4852761;29;20413;-82
2023/12/18 05:25:27;;;;;;;21.65;13.13;;;7.70;99.90;;;;;;4838884;29;20057;-83
2023/12/18 05:27:53;;;;;;;25.05;13.88;;;7.70;99.90;;;;;;4836513;29;20068;-82
2023/12/18 05:30:18;;;;;;;29.02;13.52;;;7.70;99.90;;;;;;4836901;29;20102;-83
2023/12/18 05:32:44;;;;;;;23.70;13.00;;;7.70;99.90;;;;;;4836936;29;20050;-82
2023/12/18 05:35:09;;;;;;;24.05;12.93;;;7.70;99.90;;;;;;4838642;29;20057;-82
2023/12/18 05:37:35;;;;;;;22.63;12.63;;;7.70;99.90;;;;;;4836935;29;20215;-82
2023/12/18 05:40:01;;;;;;;19.02;13.07;;;7.70;99.90;;;;;;4826744;29;20042;-82
2023/12/18 05:42:26;;;;;;;20.63;13.50;;;7.70;99.90;;;;;;4827673;29;20374;-82
2023/12/18 05:44:52;;;;;;;20.95;12.85;;;7.70;99.90;;;;;;4838033;29;20126;-83
2023/12/18 05:47:17;;;;;;;23.60;13.98;;;7.70;99.90;;;;;;4838862;29;20098;-84
2023/12/18 05:49:43;;;;;;;23.00;12.70;;;7.70;99.90;;;;;;4838144;29;20054;-82
2023/12/18 05:52:08;;;;;;;20.02;12.60;;;7.70;99.90;;;;;;4837299;29;20416;-82
2023/12/18 05:54:34;;;;;;;21.70;12.35;;;7.70;99.90;;;;;;4838323;29;20442;-82
2023/12/18 05:56:59;;;;;;;24.05;13.55;;;7.70;99.90;;;;;;4838403;29;20082;-82
2023/12/18 05:59:25;;;;;;;25.65;12.80;;;7.70;99.90;;;;;;4834488;29;20081;-83
2023/12/18 06:01:51;;;;;;;23.63;13.05;;;7.70;99.90;;;;;;4834476;29;20050;-83
2023/12/18 06:04:16;;;;;;;21.70;13.82;;;7.70;99.90;;;;;;4825644;29;20053;-82
2023/12/18 06:06:42;;;;;;;22.60;13.50;;;7.70;99.90;;;;;;4837654;29;20045;-83
2023/12/18 06:09:07;;;;;;;28.73;13.27;;;7.70;99.90;;;;;;4837485;29;20106;-82
2023/12/18 06:11:33;;;;;;;22.48;13.45;;;7.70;99.90;;;;;;4838432;29;20058;-82
2023/12/18 06:13:59;;;;;;;21.40;13.20;;;7.70;99.90;;;;;;4847495;29;20054;-82
2023/12/18 06:16:25;;;;;;;24.13;14.70;;;7.70;99.90;;;;;;4850551;29;20061;-83
2023/12/18 06:18:50;;;;;;;27.38;17.00;;;7.70;99.90;;;;;;4835032;29;20045;-83
2023/12/18 06:21:16;;;;;;;20.65;14.05;;;7.70;99.90;;;;;;4838974;29;20133;-83
2023/12/18 06:23:45;;;;;;;24.88;13.48;;;7.70;99.90;;;;;;4851083;29;20067;-83
2023/12/18 06:26:11;;;;;;;24.67;12.98;;;7.70;99.90;;;;;;4837143;29;20452;-83
2023/12/18 06:28:36;;;;;;;21.33;12.95;;;7.70;99.90;;;;;;4837307;29;20097;-83
2023/12/18 06:31:02;;;;;;;23.90;13.55;;;7.70;99.90;;;;;;4829485;29;20569;-83
2023/12/18 06:33:27;;;;;;;25.60;12.95;;;7.70;99.90;;;;;;4819881;29;20405;-82
2023/12/18 06:35:53;;;;;;;20.48;13.38;;;7.70;99.90;;;;;;4837479;29;20057;-81
2023/12/18 06:38:19;;;;;;;24.23;12.93;;;7.70;99.90;;;;;;4826998;29;20084;-82
2023/12/18 06:40:44;;;;;;;25.48;13.38;;;7.70;99.90;;;;;;4835884;29;20728;-82
2023/12/18 06:43:10;;;;;;;19.75;13.07;;;7.70;99.90;;;;;;4838540;29;20050;-81
2023/12/18 06:45:36;;;;;;;23.38;13.40;;;7.70;99.90;;;;;;4834985;29;20046;-82
2023/12/18 06:48:02;;;;;;;20.88;13.40;;;7.70;99.90;;;;;;4836755;29;20046;-81
2023/12/18 06:50:28;;;;;;;22.50;12.35;;;7.70;99.90;;;;;;4850347;29;20050;-81
2023/12/18 06:52:54;;;;;;;20.70;13.13;;;7.70;99.90;;;;;;4833325;29;20449;-81
2023/12/18 06:55:21;;;;;;;28.70;14.65;;;7.70;99.90;;;;;;4833253;29;20042;-81
2023/12/18 06:57:46;;;;;;;22.08;12.77;;;7.70;99.90;;;;;;4835540;29;20493;-81
2023/12/18 07:00:13;;;;;;;23.05;14.43;;;7.80;99.90;;;;;;4840076;29;20057;-81
2023/12/18 07:02:38;;;;;;;22.45;14.18;;;7.80;99.90;;;;;;4835660;29;20053;-81
2023/12/18 07:05:04;;;;;;;23.38;14.85;;;7.80;99.90;;;;;;4838368;29;20050;-81
2023/12/18 07:07:30;;;;;;;29.88;17.40;;;7.80;99.90;;;;;;4837976;29;20061;-81
2023/12/18 07:09:55;;;;;;;30.95;18.30;;;7.80;99.90;;;;;;4838311;29;20054;-81
2023/12/18 07:12:21;;;;;;;26.50;13.93;;;7.80;99.90;;;;;;4848784;29;20053;-81
2023/12/18 07:14:47;;;;;;;42.85;24.77;;;7.80;99.90;;;;;;4856390;29;20054;-80
2023/12/18 07:17:12;;;;;;;33.92;20.02;;;7.80;99.90;;;;;;4841220;29;20050;-80
2023/12/18 07:19:39;;;;;;;34.40;19.98;;;7.80;99.90;;;;;;4835674;29;20061;-81
2023/12/18 07:22:05;;;;;;;29.48;17.73;;;7.80;99.90;;;;;;4837118;29;20106;-81
2023/12/18 07:24:31;;;;;;;37.15;21.83;;;7.70;99.90;;;;;;4837389;29;20046;-81
2023/12/18 07:26:56;;;;;;;46.92;24.27;;;7.70;99.90;;;;;;4835696;29;20460;-81
2023/12/18 07:29:22;;;;;;;26.77;16.25;;;7.70;99.90;;;;;;4840939;29;20129;-83
2023/12/18 07:31:47;;;;;;;34.17;19.02;;;7.70;99.90;;;;;;4826006;29;20082;-82
2023/12/18 07:34:13;;;;;;;29.27;16.15;;;7.70;99.90;;;;;;4855613;29;20543;-82
2023/12/18 07:36:40;;;;;;;24.90;15.93;;;7.70;99.90;;;;;;4847299;29;20118;-86
2023/12/18 07:39:06;;;;;;;25.67;15.10;;;7.70;99.90;;;;;;4837788;29;20096;-84
2023/12/18 07:41:32;;;;;;;31.55;15.90;;;7.70;99.90;;;;;;4837765;29;20071;-84
2023/12/18 07:43:57;;;;;;;28.98;16.38;;;7.70;99.90;;;;;;4837830;29;20053;-83
2023/12/18 07:46:23;;;;;;;30.75;18.00;;;7.70;99.90;;;;;;4836179;29;20412;-84
2023/12/18 07:48:49;;;;;;;29.38;16.90;;;7.70;99.90;;;;;;4843595;29;20453;-83
2023/12/18 07:51:16;;;;;;;26.38;16.10;;;7.70;99.90;;;;;;4856123;29;20068;-83
2023/12/18 07:53:41;;;;;;;24.77;14.88;;;8.10;99.90;;;;;;4869952;29;20115;-84
2023/12/18 07:56:07;;;;;;;27.95;15.98;;;7.70;99.90;;;;;;4856274;29;20476;-84
2023/12/18 07:58:33;;;;;;;29.42;16.45;;;7.70;99.90;;;;;;4854867;29;20053;-84
2023/12/18 08:01:00;;;;;;;25.50;15.70;;;7.70;99.90;;;;;;4838277;29;20050;-84
2023/12/18 08:03:26;;;;;;;22.65;15.65;;;7.70;99.90;;;;;;4836683;29;20129;-84
2023/12/18 08:05:52;;;;;;;27.45;16.60;;;7.70;99.90;;;;;;4836057;29;20572;-84
2023/12/18 08:08:17;;;;;;;24.23;16.35;;;7.70;99.90;;;;;;4837104;29;20054;-85
2023/12/18 08:10:43;;;;;;;26.20;16.00;;;7.70;99.90;;;;;;4837504;29;20331;-85
2023/12/18 08:13:09;;;;;;;26.65;16.60;;;7.70;99.90;;;;;;4837587;29;20133;-84
2023/12/18 08:15:34;;;;;;;26.92;15.95;;;7.70;99.90;;;;;;4845325;29;20056;-85
2023/12/18 08:18:00;;;;;;;25.42;16.77;;;7.80;99.90;;;;;;4842452;29;20057;-82
2023/12/18 08:20:25;;;;;;;27.73;17.10;;;7.80;99.90;;;;;;4844128;29;20069;-83
2023/12/18 08:22:51;;;;;;;26.17;17.20;;;7.80;99.90;;;;;;4822292;29;20047;-82
2023/12/18 08:25:17;;;;;;;26.20;15.95;;;7.80;99.90;;;;;;4846145;29;20103;-81
2023/12/18 08:27:43;;;;;;;27.05;16.50;;;7.80;99.90;;;;;;4833868;29;20605;-81
2023/12/18 08:30:09;;;;;;;25.08;16.95;;;7.80;99.90;;;;;;4853409;29;20045;-82
2023/12/18 08:32:35;;;;;;;25.75;16.98;;;7.80;99.90;;;;;;4851972;29;20050;-80
2023/12/18 08:35:02;;;;;;;29.83;17.02;;;7.80;99.90;;;;;;4836424;29;20062;-80
2023/12/18 08:37:28;;;;;;;29.60;17.48;;;7.80;99.90;;;;;;4836466;29;20671;-81
2023/12/18 08:39:54;;;;;;;28.88;17.85;;;7.80;99.90;;;;;;4835652;29;20050;-79
2023/12/18 08:42:19;;;;;;;23.75;16.92;;;7.80;99.90;;;;;;4836924;29;20065;-81
2023/12/18 08:44:45;;;;;;;26.60;16.77;;;7.80;99.90;;;;;;4827749;29;20121;-81
2023/12/18 08:47:11;;;;;;;28.65;16.73;;;7.80;99.90;;;;;;4857259;29;20151;-80
2023/12/18 08:49:37;;;;;;;24.13;15.63;;;7.90;99.90;;;;;;4840469;29;20127;-80
2023/12/18 08:52:03;;;;;;;25.83;16.75;;;7.80;99.90;;;;;;4849512;29;20225;-80
2023/12/18 08:54:28;;;;;;;27.75;18.15;;;7.90;99.90;;;;;;4870907;29;20049;-80
2023/12/18 08:56:54;;;;;;;29.15;17.02;;;7.90;99.90;;;;;;4837867;29;20508;-80
2023/12/18 08:59:19;;;;;;;29.20;18.25;;;7.90;99.90;;;;;;4839482;29;20081;-80
2023/12/18 09:01:45;;;;;;;24.67;16.25;;;7.90;99.90;;;;;;4840800;29;20057;-80
2023/12/18 09:04:10;;;;;;;26.95;17.05;;;7.90;99.90;;;;;;4832928;29;20046;-80
2023/12/18 09:06:36;;;;;;;27.70;17.92;;;7.90;99.90;;;;;;4852120;29;20054;-80
2023/12/18 09:09:03;;;;;;;26.33;17.45;;;7.90;99.90;;;;;;4855861;29;20085;-80
2023/12/18 09:11:33;;;;;;;29.95;16.17;;;7.90;99.90;;;;;;4874052;29;20053;-78
2023/12/18 09:13:59;;;;;;;29.13;16.95;;;7.90;99.90;;;;;;4841652;29;20113;-80
2023/12/18 09:16:25;;;;;;;28.52;17.85;;;8.00;99.90;;;;;;4857845;29;20057;-80
2023/12/18 09:18:50;;;;;;;28.17;16.90;;;8.00;99.90;;;;;;4854340;29;20053;-80
2023/12/18 09:21:16;;;;;;;31.13;17.27;;;7.90;99.90;;;;;;4838701;29;20045;-81
2023/12/18 09:23:44;;;;;;;25.38;16.40;;;8.00;99.90;;;;;;4840143;29;20097;-81
2023/12/18 09:26:12;;;;;;;29.00;17.40;;;8.00;99.90;;;;;;4852154;29;20093;-80
2023/12/18 09:28:38;;;;;;;26.00;16.10;;;8.00;99.90;;;;;;4838757;29;20500;-81
2023/12/18 09:31:05;;;;;;;28.02;16.92;;;8.00;99.90;;;;;;4864663;29;20125;-80
2023/12/18 09:33:33;;;;;;;26.50;15.77;;;8.00;99.90;;;;;;4831323;29;20054;-80
2023/12/18 09:35:59;;;;;;;31.70;17.42;;;8.00;99.90;;;;;;4828099;29;20062;-80
2023/12/18 09:38:25;;;;;;;29.45;17.70;;;8.00;99.90;;;;;;4836467;29;20046;-81
2023/12/18 09:40:51;;;;;;;26.20;16.60;;;8.10;99.90;;;;;;4838223;29;20057;-82
2023/12/18 09:43:17;;;;;;;27.67;16.58;;;8.10;99.90;;;;;;4839944;29;20050;-81
2023/12/18 09:45:48;;;;;;;31.90;17.20;;;8.10;99.90;;;;;;4839866;29;20073;-82
2023/12/18 09:48:16;;;;;;;27.08;16.75;;;8.20;99.90;;;;;;4839724;29;20050;-82
2023/12/18 09:50:44;;;;;;;27.08;16.63;;;8.20;99.90;;;;;;4837391;29;20076;-79
2023/12/18 09:53:12;;;;;;;25.08;16.38;;;8.20;99.90;;;;;;4856752;29;20049;-80
2023/12/18 09:55:39;;;;;;;30.45;17.13;;;8.20;99.90;;;;;;4857672;29;20059;-78
2023/12/18 09:58:06;;;;;;;25.67;16.23;;;8.30;99.90;;;;;;4838755;29;20049;-80
2023/12/18 10:00:32;;;;;;;33.05;16.98;;;8.30;99.90;;;;;;4837546;29;20046;-80
2023/12/18 10:02:59;;;;;;;28.98;16.77;;;8.30;99.90;;;;;;4837529;29;20069;-79
2023/12/18 10:05:26;;;;;;;25.55;16.35;;;8.40;99.90;;;;;;4838348;29;20126;-80
2023/12/18 10:07:52;;;;;;;27.15;15.90;;;8.40;99.90;;;;;;4837958;29;20527;-79
2023/12/18 10:10:18;;;;;;;26.42;16.52;;;8.40;99.90;;;;;;4838813;29;20089;-80
2023/12/18 10:12:46;;;;;;;27.85;16.77;;;8.50;99.90;;;;;;4838884;29;20085;-82
2023/12/18 10:15:11;;;;;;;26.75;16.20;;;8.50;99.90;;;;;;4836755;29;20102;-82
2023/12/18 10:17:44;;;;;;;25.83;16.40;;;8.50;99.90;;;;;;4836529;29;20493;-81
2023/12/18 10:20:11;;;;;;;23.23;16.10;;;8.50;99.90;;;;;;4838323;29;20049;-80
2023/12/18 10:22:40;;;;;;;29.30;16.75;;;8.60;99.90;;;;;;4838498;29;20049;-81
2023/12/18 10:25:05;;;;;;;23.15;16.15;;;8.50;99.90;;;;;;4837380;29;20138;-80
2023/12/18 10:27:32;;;;;;;28.85;17.05;;;8.60;99.90;;;;;;4837497;29;20809;-81
2023/12/18 10:29:58;;;;;;;28.40;17.65;;;8.60;99.90;;;;;;4836680;29;20050;-82
2023/12/18 10:32:26;;;;;;;27.52;15.52;;;8.60;99.90;;;;;;4852195;29;20592;-82
2023/12/18 10:34:52;;;;;;;27.13;17.48;;;8.60;99.90;;;;;;4838513;29;20061;-82
2023/12/18 10:37:20;;;;;;;29.45;17.30;;;8.60;99.90;;;;;;4836752;29;20061;-82
2023/12/18 10:39:49;;;;;;;30.42;17.80;;;8.60;99.90;;;;;;4833529;29;20079;-82
2023/12/18 10:42:31;;;;;;;27.15;17.20;;;8.60;99.90;;;;;;4833957;29;20054;-82
2023/12/18 10:44:59;;;;;;;29.95;17.13;;;8.60;99.90;;;;;;4820360;29;20083;-81
2023/12/18 10:47:25;;;;;;;31.92;18.00;;;8.60;99.90;;;;;;4833458;29;20054;-82
2023/12/18 10:49:53;;;;;;;27.77;17.70;;;8.60;99.90;;;;;;4820271;29;20107;-81
2023/12/18 10:52:20;;;;;;;29.60;16.73;;;8.60;99.90;;;;;;4821753;29;20057;-81
2023/12/18 10:54:48;;;;;;;29.30;17.48;;;8.60;99.90;;;;;;4837900;29;20053;-82
2023/12/18 10:57:17;;;;;;;30.02;18.48;;;8.60;99.90;;;;;;4836625;29;20045;-82
2023/12/18 10:59:48;;;;;;;33.08;18.77;;;8.70;99.90;;;;;;4838262;29;20062;-82
2023/12/18 11:02:16;;;;;;;30.13;18.48;;;8.70;99.90;;;;;;4852379;29;20552;-81
2023/12/18 11:04:47;;;;;;;31.73;17.80;;;8.60;99.90;;;;;;4837316;29;20050;-81
2023/12/18 11:07:17;;;;;;;27.65;17.48;;;8.60;99.90;;;;;;4835410;29;20041;-81
2023/12/18 11:09:44;;;;;;;30.85;18.05;;;8.60;99.90;;;;;;4833036;29;20062;-80
2023/12/18 11:12:10;;;;;;;31.23;17.88;;;8.70;99.90;;;;;;4832459;29;20050;-80
2023/12/18 11:15:21;;;;;;;30.33;17.27;;;8.60;99.90;;;;;;4838097;29;20149;-82
2023/12/18 11:17:56;;;;;;;29.35;17.50;;;8.60;99.90;;;;;;4835233;29;20156;-81
2023/12/18 11:20:40;;;;;;;29.90;17.67;;;8.60;99.90;;;;;;4837693;29;20509;-83
2023/12/18 11:23:06;;;;;;;28.25;18.38;;;8.70;99.90;;;;;;4836874;29;20057;-80
2023/12/18 11:25:41;;;;;;;27.60;17.38;;;8.70;99.90;;;;;;4836729;29;20049;-80
2023/12/18 11:28:07;;;;;;;27.95;18.17;;;8.70;99.90;;;;;;4843544;29;20050;-80
2023/12/18 11:30:34;;;;;;;26.05;17.90;;;8.70;99.90;;;;;;4841384;29;20098;-80
2023/12/18 11:33:10;;;;;;;23.67;17.83;;;8.70;99.90;;;;;;4823487;29;20115;-80
2023/12/18 11:35:37;;;;;;;27.67;18.52;;;8.70;99.90;;;;;;4837697;29;20061;-79
2023/12/18 11:38:13;;;;;;;28.40;17.67;;;8.80;99.90;;;;;;4835712;29;20052;-80
2023/12/18 11:40:43;;;;;;;24.92;17.40;;;8.80;99.90;;;;;;4836565;29;20046;-80
2023/12/18 11:43:14;;;;;;;33.10;18.20;;;8.80;99.90;;;;;;4859308;29;20061;-80
2023/12/18 11:45:44;;;;;;;28.48;17.98;;;8.80;99.90;;;;;;4842402;29;20836;-81
2023/12/18 11:48:18;;;;;;;25.58;16.95;;;8.70;99.90;;;;;;4854878;29;20397;-81
2023/12/18 11:50:44;;;;;;;31.80;17.85;;;8.70;99.90;;;;;;4855567;29;20098;-81
2023/12/18 11:53:22;;;;;;;26.38;17.90;;;8.80;99.90;;;;;;4854053;29;20052;-80
2023/12/18 11:55:52;;;;;;;27.90;18.00;;;8.80;99.90;;;;;;4838045;29;20052;-80
2023/12/18 11:58:24;;;;;;;26.67;17.70;;;8.80;99.90;;;;;;4818327;29;20058;-80
2023/12/18 12:00:50;;;;;;;;;;;8.90;99.90;;;;;;4842204;29;20110;-80
2023/12/18 12:03:17;;;;;;;31.75;17.25;;;8.90;99.90;;;;;;4854022;29;20577;-80
2023/12/18 12:05:44;;;;;;;27.58;16.73;;;8.90;99.90;;;;;;4846125;29;20053;-80
2023/12/18 12:08:10;;;;;;;26.50;16.17;;;8.90;99.90;;;;;;4836220;29;20092;-81
2023/12/18 12:10:43;;;;;;;24.63;16.67;;;8.90;99.90;;;;;;4837259;29;20085;-80
2023/12/18 12:13:18;;;;;;;31.23;17.27;;;8.90;99.90;;;;;;4833332;29;20050;-80
2023/12/18 12:15:54;;;;;;;27.65;16.08;;;8.90;99.90;;;;;;4848951;29;20045;-83
2023/12/18 12:18:20;;;;;;;25.55;16.40;;;8.90;99.90;;;;;;4836012;29;20045;-83
2023/12/18 12:20:46;;;;;;;29.90;17.40;;;8.90;99.90;;;;;;4852802;29;21124;-84
2023/12/18 12:23:11;;;;;;;28.73;16.70;;;8.90;99.90;;;;;;4838213;29;20042;-83
2023/12/18 12:25:38;;;;;;;29.63;17.63;;;8.90;99.90;;;;;;4839706;29;20393;-83
2023/12/18 12:28:04;;;;;;;27.98;16.90;;;8.90;99.90;;;;;;4839385;29;20049;-83
2023/12/18 12:30:29;;;;;;;25.75;16.35;;;8.90;99.90;;;;;;4840924;29;20057;-83
2023/12/18 12:32:55;;;;;;;27.50;16.73;;;8.90;99.90;;;;;;4839073;29;20042;-83
2023/12/18 12:35:21;;;;;;;29.23;16.48;;;8.90;99.90;;;;;;4840760;29;20062;-84